createdAt,value
2018-03-16T00:00:33.995Z,116.53
2018-03-16T00:03:02.303Z,114.47
2018-03-16T00:05:30.611Z,106.97
2018-03-16T00:07:58.941Z,117.93
2018-03-16T00:10:27.248Z,108.13
2018-03-16T00:12:55.547Z,110.70
2018-03-16T00:15:23.884Z,122.33
2018-03-16T00:17:52.187Z,117.27
2018-03-16T00:20:20.503Z,123.93
2018-03-16T00:22:48.904Z,130.00
2018-03-16T00:25:17.981Z,132.40
2018-03-16T00:27:46.292Z,131.93
2018-03-16T00:30:15.380Z,143.30
2018-03-16T00:32:44.478Z,135.03
2018-03-16T00:35:13.617Z,136.53
2018-03-16T00:37:41.865Z,126.37
2018-03-16T00:40:10.939Z,126.07
2018-03-16T00:42:39.246Z,124.03
2018-03-16T00:45:08.352Z,133.00
2018-03-16T00:47:37.441Z,132.80
2018-03-16T00:50:06.524Z,131.60
2018-03-16T00:52:34.831Z,138.50
2018-03-16T00:55:03.330Z,149.83
2018-03-16T00:57:31.633Z,120.30
2018-03-16T01:00:00.039Z,120.07
2018-03-16T01:02:29.053Z,129.90
2018-03-16T01:04:57.352Z,129.43
2018-03-16T01:07:26.425Z,111.73
2018-03-16T01:09:54.751Z,146.37
2018-03-16T01:12:23.218Z,139.43
2018-03-16T01:14:51.616Z,141.50
2018-03-16T01:17:19.920Z,128.73
2018-03-16T01:19:48.230Z,137.37
2018-03-16T01:22:17.319Z,148.37
2018-03-16T01:24:46.448Z,132.87
2018-03-16T01:27:15.574Z,137.13
2018-03-16T01:29:43.892Z,144.37
2018-03-16T01:32:12.392Z,126.20
2018-03-16T01:34:41.208Z,121.50
2018-03-16T01:37:10.272Z,139.50
2018-03-16T01:39:38.586Z,126.10
2018-03-16T01:42:07.662Z,121.87
2018-03-16T01:44:37.519Z,122.83
2018-03-16T01:47:05.830Z,137.00
2018-03-16T01:49:34.162Z,131.83
2018-03-16T01:52:03.256Z,127.20
2018-03-16T01:54:32.345Z,131.23
2018-03-16T01:57:01.452Z,143.53
2018-03-16T01:59:30.512Z,121.20
2018-03-16T02:01:58.824Z,129.67
2018-03-16T02:04:27.890Z,115.70
2018-03-16T02:06:56.200Z,115.60
2018-03-16T02:09:25.336Z,123.80
2018-03-16T02:11:53.629Z,126.27
2018-03-16T02:14:21.942Z,120.67
2018-03-16T02:16:50.266Z,105.87
2018-03-16T02:19:18.575Z,118.60
2018-03-16T02:21:46.893Z,123.80
2018-03-16T02:24:15.970Z,114.87
2018-03-16T02:26:44.284Z,106.27
2018-03-16T02:29:13.352Z,116.57
2018-03-16T02:31:41.658Z,91.10
2018-03-16T02:34:11.546Z,102.03
2018-03-16T02:36:39.857Z,106.27
2018-03-16T02:39:08.941Z,119.20
2018-03-16T02:41:37.328Z,107.33
2018-03-16T02:44:06.404Z,106.03
2018-03-16T02:46:34.738Z,103.23
2018-03-16T02:49:03.047Z,111.73
2018-03-16T02:51:31.373Z,99.63
2018-03-16T02:53:59.686Z,92.47
2018-03-16T02:56:28.116Z,96.67
2018-03-16T02:58:56.430Z,105.20
2018-03-16T03:01:25.502Z,97.87
2018-03-16T03:03:53.807Z,94.17
2018-03-16T03:06:23.013Z,95.03
2018-03-16T03:08:52.173Z,99.67
2018-03-16T03:11:20.498Z,91.10
2018-03-16T03:13:49.572Z,102.13
2018-03-16T03:16:17.872Z,85.07
2018-03-16T03:18:46.965Z,90.30
2018-03-16T03:21:16.028Z,90.47
2018-03-16T03:23:44.324Z,92.23
2018-03-16T03:26:12.618Z,91.70
2018-03-16T03:28:41.698Z,87.93
2018-03-16T03:31:10.025Z,83.17
2018-03-16T03:33:38.319Z,84.53
2018-03-16T03:36:06.639Z,81.20
2018-03-16T03:38:34.968Z,84.03
2018-03-16T03:41:04.124Z,81.73
2018-03-16T03:43:32.429Z,80.10
2018-03-16T03:46:00.761Z,86.37
2018-03-16T03:48:29.068Z,81.37
2018-03-16T03:50:58.124Z,86.50
2018-03-16T03:53:26.403Z,77.07
2018-03-16T03:55:54.708Z,79.40
2018-03-16T03:58:23.027Z,77.70
2018-03-16T04:00:52.097Z,77.87
2018-03-16T04:03:21.827Z,89.00
2018-03-16T04:05:50.927Z,76.03
2018-03-16T04:08:19.964Z,73.13
2018-03-16T04:10:48.308Z,75.43
2018-03-16T04:13:17.383Z,79.93
2018-03-16T04:15:45.684Z,78.13
2018-03-16T04:18:14.756Z,72.93
2018-03-16T04:20:43.056Z,76.50
2018-03-16T04:23:12.144Z,75.33
2018-03-16T04:25:40.447Z,76.37
2018-03-16T04:28:09.510Z,73.47
2018-03-16T04:30:37.812Z,76.50
2018-03-16T04:33:06.897Z,69.53
2018-03-16T04:35:35.207Z,77.70
2018-03-16T04:38:04.277Z,79.83
2018-03-16T04:40:33.478Z,73.90
2018-03-16T04:43:01.829Z,79.80
2018-03-16T04:45:30.164Z,72.80
2018-03-16T04:47:59.223Z,79.97
2018-03-16T04:50:27.529Z,80.53
2018-03-16T04:52:56.610Z,77.70
2018-03-16T04:55:25.075Z,70.77
2018-03-16T04:57:53.613Z,71.27
2018-03-16T05:00:22.850Z,72.70
2018-03-16T05:02:51.153Z,74.10
2018-03-16T05:05:19.459Z,68.83
2018-03-16T05:07:47.768Z,68.37
2018-03-16T05:10:16.082Z,74.27
2018-03-16T05:12:44.405Z,72.13
2018-03-16T05:15:13.505Z,66.23
2018-03-16T05:17:41.818Z,66.93
2018-03-16T05:20:10.209Z,73.40
2018-03-16T05:22:38.499Z,73.33
2018-03-16T05:25:06.963Z,78.70
2018-03-16T05:27:35.421Z,83.80
2018-03-16T05:30:04.473Z,78.23
2018-03-16T05:32:32.777Z,87.10
2018-03-16T05:35:01.091Z,88.20
2018-03-16T05:37:30.156Z,89.23
2018-03-16T05:39:58.474Z,83.67
2018-03-16T05:42:26.788Z,91.60
2018-03-16T05:44:55.085Z,84.20
2018-03-16T05:47:23.383Z,93.60
2018-03-16T05:49:51.705Z,85.03
2018-03-16T05:52:20.005Z,92.67
2018-03-16T05:54:48.324Z,81.77
2018-03-16T05:57:16.638Z,87.47
2018-03-16T05:59:44.958Z,96.00
2018-03-16T06:02:13.294Z,80.70
2018-03-16T06:04:41.604Z,89.73
2018-03-16T06:07:09.928Z,81.70
2018-03-16T06:09:38.358Z,80.30
2018-03-16T06:12:06.662Z,76.27
2018-03-16T06:14:34.984Z,82.10
2018-03-16T06:17:04.074Z,74.60
2018-03-16T06:19:32.378Z,84.23
2018-03-16T06:22:00.768Z,76.53
2018-03-16T06:24:29.071Z,78.03
2018-03-16T06:26:57.476Z,82.80
2018-03-16T06:29:25.739Z,81.00
2018-03-16T06:31:54.103Z,77.63
2018-03-16T06:34:22.399Z,88.37
2018-03-16T06:36:50.737Z,80.57
2018-03-16T06:39:19.885Z,80.80
2018-03-16T06:41:48.156Z,84.33
2018-03-16T06:44:16.477Z,81.03
2018-03-16T06:46:44.789Z,77.80
2018-03-16T06:49:13.116Z,78.50
2018-03-16T06:51:41.581Z,77.80
2018-03-16T06:54:09.952Z,80.20
2018-03-16T06:56:38.250Z,79.20
2018-03-16T06:59:06.566Z,83.63
2018-03-16T07:01:36.375Z,74.10
2018-03-16T07:04:04.689Z,74.27
2018-03-16T07:06:32.995Z,79.30
2018-03-16T07:09:01.295Z,79.07
2018-03-16T07:11:29.598Z,75.93
2018-03-16T07:13:57.900Z,80.50
2018-03-16T07:16:26.961Z,80.87
2018-03-16T07:18:55.269Z,80.20
2018-03-16T07:21:24.405Z,79.53
2018-03-16T07:23:52.783Z,77.30
2018-03-16T07:26:21.108Z,84.87
2018-03-16T07:28:49.424Z,86.10
2018-03-16T07:31:18.515Z,72.20
2018-03-16T07:33:46.831Z,81.10
2018-03-16T07:36:15.119Z,82.90
2018-03-16T07:38:43.445Z,81.57
2018-03-16T07:41:12.572Z,85.10
2018-03-16T07:43:40.969Z,82.40
2018-03-16T07:46:15.024Z,77.40
2018-03-16T07:48:43.338Z,75.47
2018-03-16T07:51:12.413Z,80.30
2018-03-16T07:53:41.489Z,82.80
2018-03-16T07:56:09.831Z,83.33
2018-03-16T07:58:38.221Z,84.47
2018-03-16T08:01:06.560Z,75.37
2018-03-16T08:03:34.953Z,79.73
2018-03-16T08:06:04.031Z,79.33
2018-03-16T08:08:32.352Z,77.00
2018-03-16T08:11:00.658Z,79.63
2018-03-16T08:13:29.079Z,79.13
2018-03-16T08:15:58.148Z,78.53
2018-03-16T08:18:26.613Z,77.40
2018-03-16T08:20:54.919Z,77.03
2018-03-16T08:23:23.316Z,81.40
2018-03-16T08:25:52.387Z,77.97
2018-03-16T08:28:20.684Z,73.50
2018-03-16T08:30:48.977Z,76.33
2018-03-16T08:33:18.042Z,76.37
2018-03-16T08:35:46.335Z,82.93
2018-03-16T08:38:14.657Z,77.57
2018-03-16T08:40:43.634Z,71.27
2018-03-16T08:43:11.957Z,75.53
2018-03-16T08:45:40.257Z,72.13
2018-03-16T08:48:08.615Z,71.23
2018-03-16T08:50:37.007Z,71.83
2018-03-16T08:53:05.395Z,70.17
2018-03-16T08:55:33.691Z,67.20
2018-03-16T08:58:02.042Z,68.53
2018-03-16T09:00:30.367Z,69.17
2018-03-16T09:02:58.668Z,66.10
2018-03-16T09:05:28.483Z,69.80
2018-03-16T09:07:57.563Z,67.20
2018-03-16T09:10:25.905Z,62.67
2018-03-16T09:12:54.227Z,68.77
2018-03-16T09:15:22.549Z,62.50
2018-03-16T09:17:51.613Z,64.27
2018-03-16T09:20:19.947Z,66.40
2018-03-16T09:22:48.247Z,71.40
2018-03-16T09:25:17.227Z,63.47
2018-03-16T09:27:45.527Z,61.50
2018-03-16T09:30:14.563Z,54.50
2018-03-16T09:32:43.005Z,64.23
2018-03-16T09:35:11.307Z,63.17
2018-03-16T09:37:39.674Z,63.33
2018-03-16T09:40:07.989Z,59.17
2018-03-16T09:42:37.079Z,59.20
2018-03-16T09:45:05.396Z,58.90
2018-03-16T09:47:33.703Z,61.57
2018-03-16T09:50:02.038Z,60.70
2018-03-16T09:52:31.099Z,56.30
2018-03-16T09:55:17.281Z,59.00
2018-03-16T09:57:45.601Z,65.47
2018-03-16T10:00:14.665Z,60.83
2018-03-16T10:02:42.975Z,64.67
2018-03-16T10:05:11.283Z,60.57
2018-03-16T10:07:39.591Z,58.93
2018-03-16T10:10:07.921Z,53.47
2018-03-16T10:12:37.055Z,56.67
2018-03-16T10:15:05.379Z,58.37
2018-03-16T10:17:36.237Z,51.90
2018-03-16T10:20:05.361Z,52.73
2018-03-16T10:22:33.812Z,56.27
2018-03-16T10:25:04.059Z,48.23
2018-03-16T10:27:36.422Z,51.20
2018-03-16T10:30:05.065Z,49.70
2018-03-16T10:32:33.748Z,50.90
2018-03-16T10:35:03.101Z,48.70
2018-03-16T10:37:32.397Z,49.03
2018-03-16T10:40:02.519Z,52.50
2018-03-16T10:42:31.831Z,48.70
2018-03-16T10:45:00.921Z,47.20
2018-03-16T10:47:30.036Z,46.20
2018-03-16T10:49:59.147Z,44.00
2018-03-16T10:52:27.529Z,43.97
2018-03-16T10:54:55.895Z,43.90
2018-03-16T10:57:24.978Z,43.83
2018-03-16T10:59:53.286Z,41.53
2018-03-16T11:02:21.797Z,40.53
2018-03-16T11:04:55.701Z,40.80
2018-03-16T11:10:24.831Z,40.90
2018-03-16T11:12:55.182Z,37.37
2018-03-16T11:15:24.511Z,39.83
2018-03-16T11:17:52.833Z,36.10
2018-03-16T11:20:21.141Z,35.20
2018-03-16T11:22:49.473Z,35.87
2018-03-16T11:25:17.827Z,32.37
2018-03-16T11:27:46.931Z,33.47
2018-03-16T11:30:15.288Z,33.40
2018-03-16T11:32:43.609Z,33.20
2018-03-16T11:35:11.925Z,30.50
2018-03-16T11:37:40.276Z,29.60
2018-03-16T11:40:08.583Z,29.70
2018-03-16T11:42:36.910Z,28.77
2018-03-16T11:45:05.240Z,28.07
2018-03-16T11:47:33.544Z,27.80
2018-03-16T11:50:01.868Z,29.23
2018-03-16T11:52:30.174Z,28.90
2018-03-16T11:54:58.483Z,28.03
2018-03-16T11:57:26.791Z,31.20
2018-03-16T11:59:55.866Z,26.67
2018-03-16T12:02:24.211Z,30.80
2018-03-16T12:04:52.707Z,29.57
2018-03-16T12:07:21.067Z,29.27
2018-03-16T12:09:49.367Z,28.70
2018-03-16T12:12:17.692Z,30.47
2018-03-16T12:14:46.848Z,28.53
2018-03-16T12:17:15.247Z,29.37
2018-03-16T12:19:43.565Z,30.20
2018-03-16T12:22:15.278Z,30.73
2018-03-16T12:24:45.165Z,28.77
2018-03-16T12:27:13.956Z,28.33
2018-03-16T12:29:43.108Z,29.70
2018-03-16T12:32:12.223Z,31.43
2018-03-16T12:34:41.335Z,29.00
2018-03-16T12:37:11.411Z,31.10
2018-03-16T12:39:40.826Z,31.30
2018-03-16T12:42:09.630Z,27.00
2018-03-16T12:44:38.023Z,29.80
2018-03-16T12:47:07.141Z,29.00
2018-03-16T12:49:35.470Z,29.37
2018-03-16T12:52:03.768Z,28.10
2018-03-16T12:54:33.456Z,30.10
2018-03-16T12:57:03.005Z,27.57
2018-03-16T12:59:32.094Z,28.80
2018-03-16T13:02:01.188Z,30.00
2018-03-16T13:04:30.276Z,29.63
2018-03-16T13:06:58.610Z,29.47
2018-03-16T13:09:26.926Z,28.67
2018-03-16T13:11:55.242Z,29.87
2018-03-16T13:14:24.304Z,28.57
2018-03-16T13:16:52.618Z,29.40
2018-03-16T13:19:22.449Z,29.00
2018-03-16T13:21:50.767Z,28.53
2018-03-16T13:24:19.131Z,28.67
2018-03-16T13:26:47.457Z,28.00
2018-03-16T13:29:15.765Z,30.37
2018-03-16T13:31:44.835Z,31.50
2018-03-16T13:34:13.169Z,32.37
2018-03-16T13:36:41.487Z,28.90
2018-03-16T13:39:09.815Z,32.57
2018-03-16T13:41:38.142Z,31.67
2018-03-16T13:44:06.445Z,30.17
2018-03-16T13:46:34.780Z,31.87
2018-03-16T13:49:03.090Z,31.27
2018-03-16T13:51:31.425Z,29.87
2018-03-16T13:53:59.844Z,29.07
2018-03-16T13:56:28.153Z,28.53
2018-03-16T13:58:56.476Z,30.93
2018-03-16T14:01:24.799Z,29.90
2018-03-16T14:03:53.137Z,31.43
2018-03-16T14:06:21.455Z,28.27
2018-03-16T14:08:49.773Z,27.90
2018-03-16T14:11:18.863Z,26.40
2018-03-16T14:13:48.189Z,25.37
2018-03-16T14:16:16.524Z,28.90
2018-03-16T14:18:45.599Z,28.80
2018-03-16T14:21:13.908Z,28.60
2018-03-16T14:23:42.242Z,28.03
2018-03-16T14:26:10.555Z,28.83
2018-03-16T14:28:38.876Z,26.20
2018-03-16T14:31:07.971Z,26.80
2018-03-16T14:33:37.056Z,25.77
2018-03-16T14:36:05.367Z,27.13
2018-03-16T14:38:33.691Z,24.03
2018-03-16T14:41:02.012Z,27.87
2018-03-16T14:43:31.764Z,25.20
2018-03-16T14:46:00.080Z,24.63
2018-03-16T14:48:28.468Z,23.93
2018-03-16T14:50:57.652Z,21.20
2018-03-16T14:53:25.966Z,23.17
2018-03-16T14:55:55.028Z,23.47
2018-03-16T14:58:23.374Z,24.60
2018-03-16T15:00:51.671Z,22.30
2018-03-16T15:03:19.975Z,22.10
2018-03-16T15:05:48.344Z,19.40
2018-03-16T15:08:16.717Z,21.93
2018-03-16T15:10:46.520Z,20.20
2018-03-16T15:13:14.896Z,24.43
2018-03-16T15:15:43.288Z,21.07
2018-03-16T15:18:11.619Z,20.37
2018-03-16T15:20:39.918Z,21.20
2018-03-16T15:23:08.995Z,18.63
2018-03-16T15:25:38.076Z,21.37
2018-03-16T15:28:06.386Z,21.40
2018-03-16T15:30:35.463Z,22.27
2018-03-16T15:33:04.929Z,23.00
2018-03-16T15:35:33.247Z,21.07
2018-03-16T15:38:02.738Z,22.20
2018-03-16T15:40:31.060Z,22.43
2018-03-16T15:43:00.160Z,21.40
2018-03-16T15:45:29.236Z,22.03
2018-03-16T15:47:57.562Z,22.80
2018-03-16T15:50:25.886Z,20.80
2018-03-16T15:52:54.220Z,22.73
2018-03-16T15:55:22.536Z,25.70
2018-03-16T15:57:50.861Z,22.83
2018-03-16T16:00:19.946Z,22.00
2018-03-16T16:02:49.163Z,23.33
2018-03-16T16:05:18.350Z,20.27
2018-03-16T16:07:47.446Z,23.53
2018-03-16T16:10:16.524Z,22.00
2018-03-16T16:12:44.910Z,23.00
2018-03-16T16:15:13.249Z,22.33
2018-03-16T16:17:41.590Z,26.00
2018-03-16T16:20:10.944Z,25.47
2018-03-16T16:22:39.281Z,24.70
2018-03-16T16:25:08.480Z,24.03
2018-03-16T16:27:37.574Z,23.97
2018-03-16T16:30:05.936Z,27.10
2018-03-16T16:32:34.259Z,23.53
2018-03-16T16:35:02.598Z,25.93
2018-03-16T16:37:30.919Z,23.07
2018-03-16T16:39:59.253Z,23.90
2018-03-16T16:42:27.737Z,24.73
2018-03-16T16:44:56.059Z,24.73
2018-03-16T16:47:25.166Z,24.70
2018-03-16T16:49:52.798Z,23.27
2018-03-16T16:52:21.118Z,25.67
2018-03-16T16:54:49.451Z,28.20
2018-03-16T16:57:17.774Z,28.17
2018-03-16T16:59:46.143Z,23.20
2018-03-16T17:02:14.488Z,23.23
2018-03-16T17:04:44.821Z,29.03
2018-03-16T17:07:13.154Z,29.60
2018-03-16T17:09:41.580Z,26.40
2018-03-16T17:12:09.919Z,31.33
2018-03-16T17:14:38.262Z,30.00
2018-03-16T17:17:07.364Z,29.80
2018-03-16T17:19:36.628Z,29.23
2018-03-16T17:22:04.993Z,28.80
2018-03-16T17:24:33.314Z,27.63
2018-03-16T17:27:01.668Z,27.80
2018-03-16T17:29:30.037Z,27.30
2018-03-16T17:31:58.365Z,35.13
2018-03-16T17:34:27.448Z,30.53
2018-03-16T17:36:55.760Z,28.20
2018-03-16T17:39:24.884Z,31.53
2018-03-16T17:41:53.433Z,23.33
2018-03-16T17:44:22.589Z,26.80
2018-03-16T17:46:50.922Z,28.13
2018-03-16T17:49:20.021Z,29.70
2018-03-16T17:51:49.132Z,26.87
2018-03-16T17:54:17.483Z,25.53
2018-03-16T17:56:45.846Z,22.97
2018-03-16T17:59:14.360Z,26.50
2018-03-16T18:01:42.708Z,28.70
2018-03-16T18:04:11.128Z,25.13
2018-03-16T18:06:40.216Z,27.47
2018-03-16T18:09:09.317Z,25.57
2018-03-16T18:11:38.435Z,30.40
2018-03-16T18:14:06.780Z,25.30
2018-03-16T18:16:35.145Z,26.00
2018-03-16T18:19:03.496Z,28.67
2018-03-16T18:21:31.897Z,28.33
2018-03-16T18:24:00.273Z,29.00
2018-03-16T18:26:28.684Z,25.80
2018-03-16T18:28:57.855Z,28.90
2018-03-16T18:31:26.200Z,24.30
2018-03-16T18:33:55.301Z,28.27
2018-03-16T18:36:24.388Z,26.10
2018-03-16T18:38:53.532Z,28.50
2018-03-16T18:41:21.836Z,31.83
2018-03-16T18:43:50.338Z,30.07
2018-03-16T18:46:19.628Z,29.30
2018-03-16T18:48:47.969Z,26.77
2018-03-16T18:51:16.330Z,25.90
2018-03-16T18:53:45.512Z,24.03
2018-03-16T18:56:16.085Z,25.30
2018-03-16T18:58:46.008Z,25.13
2018-03-16T19:01:17.899Z,29.33
2018-03-16T19:03:47.151Z,21.73
2018-03-16T19:06:15.520Z,19.27
2018-03-16T19:08:44.621Z,22.60
2018-03-16T19:11:13.726Z,21.80
2018-03-16T19:13:42.222Z,22.10
2018-03-16T19:16:10.695Z,24.77
2018-03-16T19:18:39.225Z,19.90
2018-03-16T19:21:07.556Z,23.00
2018-03-16T19:23:36.754Z,18.57
2018-03-16T19:26:05.127Z,18.13
2018-03-16T19:28:34.263Z,23.45
2018-03-16T19:31:02.612Z,21.73
2018-03-16T19:33:31.733Z,23.73
2018-03-16T19:36:00.126Z,21.50
2018-03-16T19:38:28.503Z,18.10
2018-03-16T19:40:56.854Z,20.87
2018-03-16T19:43:25.997Z,22.93
2018-03-16T19:45:54.946Z,18.80
2018-03-16T19:48:24.982Z,20.37
2018-03-16T19:50:53.341Z,21.17
2018-03-16T19:53:22.838Z,21.73
2018-03-16T19:55:51.186Z,22.87
2018-03-16T19:58:19.916Z,22.67
2018-03-16T20:00:48.291Z,24.17
2018-03-16T20:03:16.752Z,20.77
2018-03-16T20:05:46.013Z,19.93
2018-03-16T20:08:14.687Z,21.70
2018-03-16T20:10:43.800Z,20.40
2018-03-16T20:13:12.358Z,19.40
2018-03-16T20:15:41.492Z,16.73
2018-03-16T20:18:09.848Z,20.80
2018-03-16T20:20:39.752Z,17.20
2018-03-16T20:23:08.860Z,17.67
2018-03-16T20:25:38.001Z,21.03
2018-03-16T20:28:06.363Z,15.40
2018-03-16T20:30:34.733Z,17.57
2018-03-16T20:33:03.840Z,18.10
2018-03-16T20:35:32.241Z,14.33
2018-03-16T20:38:00.581Z,15.37
2018-03-16T20:40:29.702Z,15.43
2018-03-16T20:42:58.600Z,15.87
2018-03-16T20:45:26.948Z,16.03
2018-03-16T20:47:56.136Z,14.47
2018-03-16T20:50:24.517Z,14.60
2018-03-16T20:52:52.866Z,15.27
2018-03-16T20:55:21.397Z,15.00
2018-03-16T20:57:49.732Z,16.10
2018-03-16T21:00:18.110Z,14.40
2018-03-16T21:02:46.521Z,15.77
2018-03-16T21:05:15.637Z,13.23
2018-03-16T21:07:44.761Z,11.60
2018-03-16T21:10:13.188Z,12.93
2018-03-16T21:12:41.970Z,15.50
2018-03-16T21:15:11.142Z,17.00
2018-03-16T21:17:39.566Z,12.10
2018-03-16T21:20:08.067Z,12.50
2018-03-16T21:22:37.224Z,11.93
2018-03-16T21:25:05.589Z,11.77
2018-03-16T21:27:33.962Z,11.73
2018-03-16T21:30:03.082Z,11.90
2018-03-16T21:32:31.532Z,11.13
2018-03-16T21:35:00.996Z,10.27
2018-03-16T21:37:29.361Z,10.27
2018-03-16T21:39:57.718Z,10.77
2018-03-16T21:42:26.180Z,10.73
2018-03-16T21:44:55.411Z,12.80
2018-03-16T21:47:23.888Z,10.00
2018-03-16T21:49:52.226Z,12.63
2018-03-16T21:52:20.552Z,10.13
2018-03-16T21:54:48.914Z,13.43
2018-03-16T21:57:18.022Z,12.70
2018-03-16T21:59:46.367Z,10.57
2018-03-16T22:02:14.696Z,12.47
2018-03-16T22:04:43.071Z,11.73
2018-03-16T22:07:14.936Z,13.17
2018-03-16T22:09:43.542Z,10.63
2018-03-16T22:12:11.866Z,11.60
2018-03-16T22:14:40.206Z,10.43
2018-03-16T22:17:08.524Z,10.00
2018-03-16T22:19:36.920Z,10.57
2018-03-16T22:22:06.170Z,8.40
2018-03-16T22:24:34.570Z,9.70
2018-03-16T22:27:02.908Z,10.97
2018-03-16T22:29:32.011Z,12.27
2018-03-16T22:32:00.347Z,12.17
2018-03-16T22:34:28.664Z,9.97
2018-03-16T22:36:57.833Z,12.77
2018-03-16T22:39:26.172Z,11.90
2018-03-16T22:41:54.568Z,11.97
2018-03-16T22:44:22.877Z,10.77
2018-03-16T22:46:51.397Z,10.07
2018-03-16T22:49:19.705Z,10.83
2018-03-16T22:51:48.021Z,13.13
2018-03-16T22:54:16.315Z,8.63
2018-03-16T22:56:44.677Z,8.83
2018-03-16T22:59:13.784Z,9.77
2018-03-16T23:01:42.177Z,11.83
2018-03-16T23:04:11.244Z,9.63
2018-03-16T23:06:39.550Z,10.43
2018-03-16T23:09:07.864Z,10.63
2018-03-16T23:11:36.188Z,12.00
2018-03-16T23:14:04.493Z,9.40
2018-03-16T23:16:33.575Z,10.33
2018-03-16T23:19:01.883Z,10.20
2018-03-16T23:21:30.981Z,10.20
2018-03-16T23:24:00.145Z,9.40
2018-03-16T23:26:28.492Z,9.73
2018-03-16T23:28:56.795Z,10.03
2018-03-16T23:31:25.116Z,12.13
2018-03-16T23:33:55.501Z,9.03
2018-03-16T23:36:23.815Z,8.47
2018-03-16T23:38:54.407Z,9.50
2018-03-16T23:41:22.895Z,9.00
2018-03-16T23:43:51.249Z,8.83
2018-03-16T23:46:19.682Z,9.50
2018-03-16T23:48:48.040Z,10.80
2018-03-16T23:51:16.853Z,9.37
2018-03-16T23:53:45.250Z,7.80
2018-03-16T23:56:13.635Z,11.93
2018-03-16T23:58:42.187Z,10.33
